Time;durP1;ratioP1;P1;durP2;ratioP2;P2;SDS_P1;SDS_P2;PMS_P1;PMS_P2;Temp;Humidity;BMP_temperature;BMP_pressure;BME280_temperature;BME280_humidity;BME280_pressure;Samples;Min_cycle;Max_cycle;Signal;HPM_P1;HPM_P2
2023/11/08 00:01:03;;;;;;;4.90;4.05;;;7.80;99.90;;;;;;4964326;28;20376;-87
2023/11/08 00:03:29;;;;;;;7.40;4.20;;;7.80;99.90;;;;;;4960206;28;20041;-85
2023/11/08 00:05:55;;;;;;;10.10;4.43;;;7.70;99.90;;;;;;4965560;28;20023;-86
2023/11/08 00:08:20;;;;;;;6.03;4.03;;;7.80;99.90;;;;;;4972002;28;20046;-88
2023/11/08 00:10:46;;;;;;;7.82;4.28;;;7.80;99.90;;;;;;4951954;28;20041;-84
2023/11/08 00:13:12;;;;;;;5.57;4.30;;;7.80;99.90;;;;;;4967580;28;20027;-84
2023/11/08 00:15:38;;;;;;;7.30;4.55;;;7.80;99.90;;;;;;4940304;28;20025;-85
2023/11/08 00:18:05;;;;;;;5.50;3.97;;;7.70;99.90;;;;;;4924547;28;20029;-85
2023/11/08 00:20:33;;;;;;;6.75;4.32;;;7.70;99.90;;;;;;4932543;28;20027;-87
2023/11/08 00:22:59;;;;;;;6.32;3.83;;;7.70;99.90;;;;;;4932875;28;20043;-84
2023/11/08 00:25:25;;;;;;;6.30;4.18;;;7.70;99.90;;;;;;4938519;28;20057;-86
2023/11/08 00:27:50;;;;;;;5.97;5.00;;;7.70;99.90;;;;;;4915330;28;20641;-86
2023/11/08 00:30:16;;;;;;;6.35;4.32;;;7.70;99.90;;;;;;4907246;28;20027;-86
2023/11/08 00:32:41;;;;;;;7.55;4.95;;;7.70;99.90;;;;;;4947791;28;20047;-85
2023/11/08 00:35:07;;;;;;;5.90;4.25;;;7.70;99.90;;;;;;4940960;28;22437;-85
2023/11/08 00:37:33;;;;;;;5.72;4.72;;;7.60;99.90;;;;;;4934878;28;20073;-86
2023/11/08 00:39:58;;;;;;;6.85;4.93;;;7.70;99.90;;;;;;4938276;28;20037;-85
2023/11/08 00:42:24;;;;;;;6.70;4.75;;;7.70;99.90;;;;;;4918288;28;20029;-85
2023/11/08 00:44:49;;;;;;;7.13;5.15;;;7.70;99.90;;;;;;4909561;28;21135;-85
2023/11/08 00:47:15;;;;;;;7.35;5.10;;;7.70;99.90;;;;;;4945384;28;20039;-86
2023/11/08 00:49:41;;;;;;;8.85;5.68;;;7.70;99.90;;;;;;4932833;28;20022;-84
2023/11/08 00:52:07;;;;;;;7.18;5.45;;;7.70;99.90;;;;;;4925244;28;20488;-85
2023/11/08 00:54:33;;;;;;;6.85;5.28;;;7.70;99.90;;;;;;4940798;28;21713;-85
2023/11/08 00:57:00;;;;;;;8.13;5.90;;;7.70;99.90;;;;;;4923847;28;20095;-85
2023/11/08 00:59:25;;;;;;;8.10;6.40;;;7.70;99.90;;;;;;4928713;28;20303;-86
2023/11/08 01:01:51;;;;;;;9.35;6.15;;;7.70;99.90;;;;;;4946018;28;20030;-85
2023/11/08 01:04:17;;;;;;;9.02;6.72;;;7.70;99.90;;;;;;4975611;28;20030;-87
2023/11/08 01:06:43;;;;;;;12.20;6.70;;;7.70;99.90;;;;;;4949911;28;20037;-85
2023/11/08 01:09:10;;;;;;;6.85;5.78;;;7.70;99.90;;;;;;4923702;28;20478;-86
2023/11/08 01:11:37;;;;;;;8.27;6.18;;;7.60;99.90;;;;;;4900395;28;20477;-87
2023/11/08 01:14:03;;;;;;;8.75;6.60;;;7.70;99.90;;;;;;4939059;28;21426;-84
2023/11/08 01:16:29;;;;;;;8.55;6.65;;;7.70;99.90;;;;;;4960554;28;20117;-84
2023/11/08 01:18:55;;;;;;;7.60;6.10;;;7.70;99.90;;;;;;4939283;28;20038;-85
2023/11/08 01:21:21;;;;;;;9.85;7.35;;;7.70;99.90;;;;;;4920948;28;20038;-85
2023/11/08 01:23:48;;;;;;;7.55;5.63;;;7.70;99.90;;;;;;4930348;28;20031;-87
2023/11/08 01:26:15;;;;;;;8.00;7.13;;;7.70;99.90;;;;;;4901586;28;20038;-84
2023/11/08 01:28:41;;;;;;;8.70;6.20;;;7.70;99.90;;;;;;4969575;28;20018;-85
2023/11/08 01:31:08;;;;;;;10.55;7.25;;;7.70;99.90;;;;;;4914847;28;20140;-85
2023/11/08 01:33:33;;;;;;;7.57;6.85;;;7.70;99.90;;;;;;4931932;28;20133;-84
2023/11/08 01:35:59;;;;;;;11.20;6.60;;;7.70;99.90;;;;;;4925643;28;20566;-85
2023/11/08 01:38:25;;;;;;;8.73;6.75;;;7.80;99.90;;;;;;4913442;28;20038;-84
2023/11/08 01:40:56;;;;;;;10.18;6.55;;;7.80;99.90;;;;;;4922850;28;20042;-86
2023/11/08 01:43:33;;;;;;;11.68;7.00;;;7.80;99.90;;;;;;4933888;28;20061;-84
2023/11/08 01:46:18;;;;;;;8.52;7.03;;;7.80;99.90;;;;;;4923045;28;20026;-85
2023/11/08 01:48:44;;;;;;;10.80;7.18;;;7.80;99.90;;;;;;4870701;28;20042;-85
2023/11/08 01:51:10;;;;;;;10.02;7.82;;;7.80;99.90;;;;;;4894190;28;20050;-85
2023/11/08 01:53:40;;;;;;;15.13;7.72;;;7.80;99.90;;;;;;4899754;28;20065;-85
2023/11/08 01:56:10;;;;;;;9.65;7.68;;;7.80;99.90;;;;;;4883052;28;21154;-84
2023/11/08 01:58:38;;;;;;;10.13;7.55;;;7.80;99.90;;;;;;4923032;28;20505;-87
2023/11/08 02:01:13;;;;;;;12.90;7.35;;;7.80;99.90;;;;;;4907431;28;20030;-85
2023/11/08 02:03:40;;;;;;;10.13;7.35;;;7.80;99.90;;;;;;4898223;28;20479;-84
2023/11/08 02:06:10;;;;;;;10.68;8.05;;;7.90;99.90;;;;;;4871133;28;20042;-85
2023/11/08 02:08:40;;;;;;;10.27;7.32;;;7.80;99.90;;;;;;4890802;28;20032;-83
2023/11/08 02:11:07;;;;;;;10.75;7.63;;;7.80;99.90;;;;;;4922359;28;21071;-85
2023/11/08 02:13:33;;;;;;;10.52;7.40;;;7.80;99.90;;;;;;4869273;28;20034;-87
2023/11/08 02:15:59;;;;;;;10.10;7.72;;;7.80;99.90;;;;;;4867392;28;20081;-86
2023/11/08 02:18:26;;;;;;;8.68;7.40;;;7.80;99.90;;;;;;4925619;28;20386;-85
2023/11/08 02:20:52;;;;;;;7.82;6.65;;;7.80;99.90;;;;;;4916373;28;21058;-85
2023/11/08 02:23:18;;;;;;;8.27;7.35;;;7.80;99.90;;;;;;4952749;28;20034;-84
2023/11/08 02:25:53;;;;;;;10.55;6.80;;;7.80;99.90;;;;;;4934640;28;20019;-85
2023/11/08 02:28:20;;;;;;;9.95;7.13;;;7.80;99.90;;;;;;4889317;28;20041;-86
2023/11/08 02:30:54;;;;;;;9.40;7.18;;;7.90;99.90;;;;;;4953965;28;20479;-87
2023/11/08 02:33:21;;;;;;;8.43;7.45;;;7.90;99.90;;;;;;4928038;28;20486;-85
2023/11/08 02:35:47;;;;;;;8.68;7.20;;;7.90;99.90;;;;;;4879458;28;21280;-84
2023/11/08 02:38:14;;;;;;;8.25;6.57;;;7.90;99.90;;;;;;4925718;28;20047;-84
2023/11/08 02:40:41;;;;;;;9.15;7.65;;;7.90;99.90;;;;;;4938790;28;20027;-84
2023/11/08 02:43:06;;;;;;;9.35;7.13;;;7.90;99.90;;;;;;4893157;28;20077;-85
2023/11/08 02:45:33;;;;;;;8.13;6.50;;;7.80;99.90;;;;;;4944200;28;20974;-85
2023/11/08 02:48:01;;;;;;;9.15;6.70;;;7.90;99.90;;;;;;4910154;28;21073;-87
2023/11/08 02:50:33;;;;;;;8.45;7.30;;;7.90;99.90;;;;;;4960779;28;20033;-87
2023/11/08 02:52:59;;;;;;;10.10;6.30;;;7.90;99.90;;;;;;4939236;28;20015;-85
2023/11/08 02:55:26;;;;;;;8.20;6.40;;;7.90;99.90;;;;;;4945430;28;20089;-85
2023/11/08 02:57:52;;;;;;;8.10;6.53;;;7.90;99.90;;;;;;4918723;28;20715;-85
2023/11/08 03:00:19;;;;;;;8.18;6.07;;;7.90;99.90;;;;;;4905007;28;20030;-85
2023/11/08 03:02:45;;;;;;;8.43;6.43;;;7.90;99.90;;;;;;4925918;28;20098;-84
2023/11/08 03:05:21;;;;;;;9.27;6.93;;;7.90;99.90;;;;;;4930992;28;20049;-84
2023/11/08 03:07:55;;;;;;;7.80;6.10;;;7.90;99.90;;;;;;4922530;28;20055;-84
2023/11/08 03:10:22;;;;;;;8.93;6.13;;;7.90;99.90;;;;;;4909593;28;21593;-84
2023/11/08 03:12:50;;;;;;;7.65;5.93;;;7.90;99.90;;;;;;4947799;28;20852;-84
2023/11/08 03:15:16;;;;;;;7.72;5.90;;;7.90;99.90;;;;;;4946100;28;20555;-84
2023/11/08 03:17:43;;;;;;;7.40;6.03;;;8.00;99.90;;;;;;4947062;28;20398;-83
2023/11/08 03:20:13;;;;;;;6.95;6.25;;;7.90;99.90;;;;;;4907234;28;21624;-84
2023/11/08 03:22:39;;;;;;;9.43;6.20;;;8.00;99.90;;;;;;4960857;28;20034;-84
2023/11/08 03:25:06;;;;;;;10.68;7.10;;;8.00;99.90;;;;;;4951053;28;20031;-84
2023/11/08 03:27:31;;;;;;;9.07;6.90;;;7.90;99.90;;;;;;4968060;28;20503;-86
2023/11/08 03:29:57;;;;;;;9.13;6.57;;;7.90;99.90;;;;;;4961586;28;20025;-83
2023/11/08 03:32:23;;;;;;;6.97;6.28;;;7.90;99.90;;;;;;4958763;28;20026;-84
2023/11/08 03:34:49;;;;;;;7.38;6.35;;;7.90;99.90;;;;;;4966261;28;20055;-86
2023/11/08 03:37:14;;;;;;;8.38;6.30;;;7.90;99.90;;;;;;4952866;28;20111;-83
2023/11/08 03:39:40;;;;;;;6.90;6.10;;;7.90;99.90;;;;;;4947170;28;20165;-83
2023/11/08 03:42:05;;;;;;;9.50;6.68;;;7.90;99.90;;;;;;4962555;28;22129;-84
2023/11/08 03:44:31;;;;;;;7.20;6.22;;;7.90;99.90;;;;;;4955709;28;20115;-84
2023/11/08 03:46:57;;;;;;;6.18;5.00;;;7.90;99.90;;;;;;4939681;28;20023;-84
2023/11/08 03:49:22;;;;;;;9.32;5.72;;;7.90;99.90;;;;;;4932972;28;20022;-84
2023/11/08 03:51:48;;;;;;;8.90;6.20;;;7.90;99.90;;;;;;4940472;28;21629;-85
2023/11/08 03:54:14;;;;;;;7.20;5.57;;;7.90;99.90;;;;;;4958711;28;20034;-83
2023/11/08 03:56:39;;;;;;;7.15;5.35;;;7.90;99.90;;;;;;4939536;28;20105;-84
2023/11/08 03:59:06;;;;;;;6.15;5.35;;;7.90;99.90;;;;;;4931304;28;20487;-84
2023/11/08 04:01:31;;;;;;;8.88;5.28;;;8.00;99.90;;;;;;4948589;28;20898;-86
2023/11/08 04:03:57;;;;;;;6.72;5.85;;;8.00;99.90;;;;;;4956024;28;20439;-84
2023/11/08 04:06:22;;;;;;;6.57;5.38;;;8.00;99.90;;;;;;4973606;28;20022;-85
2023/11/08 04:08:48;;;;;;;9.10;5.72;;;8.00;99.90;;;;;;4940074;28;20543;-85
2023/11/08 04:11:14;;;;;;;7.75;5.68;;;8.00;99.90;;;;;;4956330;28;20027;-85
2023/11/08 04:13:39;;;;;;;6.63;4.88;;;8.00;99.90;;;;;;4936469;28;20031;-85
2023/11/08 04:16:05;;;;;;;6.88;5.65;;;8.00;99.90;;;;;;4939836;28;20049;-82
2023/11/08 04:18:34;;;;;;;5.63;4.97;;;8.00;99.90;;;;;;4956685;28;20069;-87
2023/11/08 04:21:00;;;;;;;7.20;5.30;;;8.00;99.90;;;;;;4970588;28;20058;-85
2023/11/08 04:23:25;;;;;;;5.38;4.70;;;8.00;99.90;;;;;;4941746;28;20126;-84
2023/11/08 04:25:51;;;;;;;6.05;4.68;;;8.00;99.90;;;;;;4930396;28;20023;-83
2023/11/08 04:28:20;;;;;;;4.70;4.25;;;8.00;99.90;;;;;;4927967;28;20032;-84
2023/11/08 04:30:45;;;;;;;8.48;5.10;;;8.00;99.90;;;;;;4916465;28;20074;-84
2023/11/08 04:33:11;;;;;;;7.00;4.35;;;7.90;99.90;;;;;;4951533;28;20095;-84
2023/11/08 04:35:38;;;;;;;4.97;4.32;;;8.00;99.90;;;;;;4951838;28;20030;-84
2023/11/08 04:38:04;;;;;;;4.30;3.90;;;8.00;99.90;;;;;;4944261;28;20774;-84
2023/11/08 04:40:30;;;;;;;5.45;3.97;;;8.00;99.90;;;;;;4945024;28;20668;-85
2023/11/08 04:42:56;;;;;;;6.32;5.03;;;8.00;99.90;;;;;;4939480;28;20026;-83
2023/11/08 04:45:22;;;;;;;5.97;4.40;;;8.00;99.90;;;;;;4927237;28;20035;-84
2023/11/08 04:47:56;;;;;;;6.65;4.82;;;8.00;99.90;;;;;;4959132;28;20022;-84
2023/11/08 04:50:21;;;;;;;6.88;4.78;;;8.00;99.90;;;;;;4969729;28;20035;-84
2023/11/08 04:52:47;;;;;;;6.32;4.07;;;8.00;99.90;;;;;;4961878;28;20019;-85
2023/11/08 04:55:13;;;;;;;5.72;4.72;;;8.00;99.90;;;;;;4933794;28;20126;-86
2023/11/08 04:57:39;;;;;;;5.85;4.53;;;8.00;99.90;;;;;;4948977;28;20042;-84
2023/11/08 05:00:05;;;;;;;6.75;4.88;;;8.00;99.90;;;;;;4930693;28;21664;-84
2023/11/08 05:02:34;;;;;;;5.85;5.00;;;8.00;99.90;;;;;;4966441;28;20042;-84
2023/11/08 05:05:00;;;;;;;9.80;4.93;;;8.00;99.90;;;;;;4959085;28;20050;-84
2023/11/08 05:07:26;;;;;;;6.82;4.82;;;8.00;99.90;;;;;;4959085;28;20487;-83
2023/11/08 05:09:53;;;;;;;7.22;5.95;;;8.00;99.90;;;;;;4947066;28;20019;-84
2023/11/08 05:12:19;;;;;;;5.78;5.18;;;8.00;99.90;;;;;;4927888;28;20466;-83
2023/11/08 05:15:01;;;;;;;6.80;5.30;;;8.00;99.90;;;;;;4970769;28;20644;-83
2023/11/08 05:17:27;;;;;;;7.80;4.95;;;8.00;99.90;;;;;;4940111;28;21659;-84
2023/11/08 05:19:53;;;;;;;6.18;4.93;;;8.00;99.90;;;;;;4964201;28;20363;-85
2023/11/08 05:22:18;;;;;;;7.32;4.97;;;8.00;99.90;;;;;;4935788;28;20050;-84
2023/11/08 05:24:44;;;;;;;6.55;4.97;;;8.00;99.90;;;;;;4957329;28;20141;-84
2023/11/08 05:27:12;;;;;;;6.40;5.40;;;8.00;99.90;;;;;;4930924;28;20575;-84
2023/11/08 05:29:38;;;;;;;6.45;5.38;;;8.10;99.90;;;;;;4979051;28;20022;-83
2023/11/08 05:32:04;;;;;;;7.75;5.85;;;8.10;99.90;;;;;;4936617;28;20029;-84
2023/11/08 05:34:30;;;;;;;6.38;5.10;;;8.10;99.90;;;;;;4965599;28;20038;-85
2023/11/08 05:36:55;;;;;;;7.50;5.60;;;8.00;99.90;;;;;;4983815;28;20031;-87
2023/11/08 05:39:24;;;;;;;9.35;5.85;;;8.00;99.90;;;;;;4957577;28;20014;-86
2023/11/08 05:41:51;;;;;;;6.18;5.57;;;8.00;99.90;;;;;;4965500;28;20026;-85
2023/11/08 05:44:17;;;;;;;8.13;5.72;;;8.00;99.90;;;;;;4959240;28;20037;-85
2023/11/08 05:46:42;;;;;;;9.05;6.05;;;8.00;99.90;;;;;;4951205;28;20396;-85
2023/11/08 05:49:08;;;;;;;6.72;6.00;;;8.00;99.90;;;;;;4917545;28;20388;-84
2023/11/08 05:51:43;;;;;;;6.57;5.88;;;8.00;99.90;;;;;;4936031;28;20019;-84
2023/11/08 05:54:09;;;;;;;7.85;6.40;;;8.10;99.90;;;;;;4951243;28;20659;-84
2023/11/08 05:56:35;;;;;;;6.90;5.28;;;8.00;99.90;;;;;;4959109;28;20031;-86
2023/11/08 05:59:09;;;;;;;6.75;5.43;;;8.00;99.90;;;;;;4953055;28;20057;-84
2023/11/08 06:01:35;;;;;;;7.82;6.40;;;8.00;99.90;;;;;;4946586;28;20078;-86
2023/11/08 06:04:01;;;;;;;9.00;6.65;;;8.10;99.90;;;;;;4941495;28;20038;-84
2023/11/08 06:06:27;;;;;;;6.78;6.13;;;8.00;99.90;;;;;;4926275;28;20030;-85
2023/11/08 06:08:59;;;;;;;12.38;6.90;;;8.00;99.90;;;;;;4957332;28;20049;-85
2023/11/08 06:11:25;;;;;;;8.23;6.20;;;8.00;99.90;;;;;;4946688;28;20035;-85
2023/11/08 06:13:50;;;;;;;8.63;6.97;;;8.00;99.90;;;;;;4934395;28;20041;-83
2023/11/08 06:16:16;;;;;;;8.32;6.82;;;8.10;99.90;;;;;;4963241;28;20038;-83
2023/11/08 06:18:44;;;;;;;10.75;6.40;;;8.10;99.90;;;;;;4901836;28;20034;-84
2023/11/08 06:21:13;;;;;;;8.02;6.93;;;8.10;99.90;;;;;;4949929;28;20043;-84
2023/11/08 06:24:00;;;;;;;9.25;7.30;;;8.00;99.90;;;;;;4946744;28;20038;-83
2023/11/08 06:26:26;;;;;;;7.90;6.38;;;8.10;99.90;;;;;;4976704;28;20027;-84
2023/11/08 06:29:00;;;;;;;11.27;6.32;;;8.10;99.90;;;;;;4970324;28;20355;-83
2023/11/08 06:31:40;;;;;;;7.45;6.65;;;8.10;99.90;;;;;;4935205;28;20406;-85
2023/11/08 06:34:13;;;;;;;8.65;6.05;;;8.10;99.90;;;;;;4951434;28;20125;-85
2023/11/08 06:36:51;;;;;;;10.40;6.57;;;8.10;99.90;;;;;;4952590;28;20088;-83
2023/11/08 06:39:43;;;;;;;8.40;6.22;;;8.00;99.90;;;;;;4937391;28;20600;-84
2023/11/08 06:42:09;;;;;;;7.18;5.55;;;8.00;99.90;;;;;;4965089;28;20018;-83
2023/11/08 06:44:35;;;;;;;7.30;6.35;;;8.00;99.90;;;;;;4956600;28;20045;-86
2023/11/08 06:47:00;;;;;;;7.78;5.25;;;8.00;99.90;;;;;;4957993;28;20133;-85
2023/11/08 06:49:26;;;;;;;6.93;5.90;;;8.10;99.90;;;;;;4974642;28;20558;-85
2023/11/08 06:51:52;;;;;;;9.65;6.78;;;8.00;99.90;;;;;;4946313;28;20491;-86
2023/11/08 06:54:17;;;;;;;6.63;5.63;;;8.00;99.90;;;;;;4968813;28;20407;-85
2023/11/08 06:56:43;;;;;;;7.20;5.32;;;8.00;99.90;;;;;;4956570;28;20117;-84
2023/11/08 06:59:09;;;;;;;5.80;5.20;;;8.00;99.90;;;;;;4945355;28;20514;-84
2023/11/08 07:01:37;;;;;;;6.53;5.20;;;8.00;99.90;;;;;;4929760;28;20125;-86
2023/11/08 07:04:04;;;;;;;6.78;5.60;;;8.00;99.90;;;;;;4957183;28;20039;-85
2023/11/08 07:06:29;;;;;;;5.95;5.07;;;8.00;99.90;;;;;;4943586;28;20391;-85
2023/11/08 07:08:55;;;;;;;9.43;5.82;;;8.00;99.90;;;;;;4936987;28;20126;-84
2023/11/08 07:11:21;;;;;;;6.85;5.22;;;8.00;99.90;;;;;;4930248;28;20050;-86
2023/11/08 07:13:47;;;;;;;5.45;4.47;;;8.00;99.90;;;;;;4938334;28;20145;-86
2023/11/08 07:16:12;;;;;;;5.63;4.93;;;8.00;99.90;;;;;;4945966;28;20114;-85
2023/11/08 07:18:38;;;;;;;5.75;4.78;;;8.00;99.90;;;;;;4950688;28;20395;-85
2023/11/08 07:21:04;;;;;;;5.60;5.05;;;8.00;99.90;;;;;;4957394;28;20124;-84
2023/11/08 07:23:29;;;;;;;5.10;4.57;;;8.00;99.90;;;;;;4907795;28;20041;-83
2023/11/08 07:25:55;;;;;;;6.85;4.57;;;8.10;99.90;;;;;;4901403;28;20027;-84
2023/11/08 07:28:20;;;;;;;7.72;4.90;;;8.10;99.90;;;;;;4940890;28;20037;-86
2023/11/08 07:30:52;;;;;;;6.35;4.57;;;8.00;99.90;;;;;;4966419;28;20034;-87
2023/11/08 07:33:18;;;;;;;4.47;4.03;;;8.10;99.90;;;;;;4948076;28;20037;-86
2023/11/08 07:35:43;;;;;;;5.75;4.78;;;8.10;99.90;;;;;;4937674;28;20031;-85
2023/11/08 07:38:09;;;;;;;7.25;5.00;;;8.10;99.90;;;;;;4921225;28;20046;-84
2023/11/08 07:40:42;;;;;;;4.53;4.13;;;8.10;99.90;;;;;;4900026;28;20102;-86
2023/11/08 07:43:08;;;;;;;6.13;4.78;;;8.10;99.90;;;;;;4963911;28;21769;-84
2023/11/08 07:45:34;;;;;;;5.05;4.55;;;8.20;99.90;;;;;;4892065;28;20022;-85
2023/11/08 07:48:02;;;;;;;4.60;4.13;;;8.20;99.90;;;;;;4900970;28;20113;-84
2023/11/08 07:50:28;;;;;;;6.05;4.65;;;8.20;99.90;;;;;;4943216;28;20451;-86
2023/11/08 07:52:54;;;;;;;7.70;6.05;;;8.20;99.90;;;;;;4881744;28;20998;-84
2023/11/08 07:55:19;;;;;;;7.45;5.00;;;8.30;99.90;;;;;;4923323;28;20031;-84
2023/11/08 07:57:57;;;;;;;7.18;5.55;;;8.30;99.90;;;;;;4915704;28;20031;-86
2023/11/08 08:00:24;;;;;;;5.80;4.95;;;8.30;99.90;;;;;;4912098;28;20117;-85
2023/11/08 08:02:49;;;;;;;5.50;3.92;;;8.40;99.90;;;;;;4909862;28;20068;-84
2023/11/08 08:05:15;;;;;;;5.50;4.93;;;8.40;99.90;;;;;;4890289;28;20030;-85
2023/11/08 08:07:41;;;;;;;6.22;4.22;;;8.40;99.90;;;;;;4902718;28;20026;-82
2023/11/08 08:10:08;;;;;;;12.82;5.20;;;8.40;99.90;;;;;;4903992;28;21259;-83
2023/11/08 08:12:34;;;;;;;4.70;4.20;;;8.40;99.90;;;;;;4939422;28;20178;-83
2023/11/08 08:15:00;;;;;;;6.35;4.68;;;8.40;99.90;;;;;;4903788;28;20482;-85
2023/11/08 08:17:25;;;;;;;5.80;4.35;;;8.40;99.90;;;;;;4856595;28;20546;-83
2023/11/08 08:19:54;;;;;;;5.97;4.22;;;8.40;99.90;;;;;;4883783;28;21291;-85
2023/11/08 08:22:21;;;;;;;5.45;4.20;;;8.40;99.90;;;;;;4911207;28;20010;-83
2023/11/08 08:24:55;;;;;;;6.10;3.95;;;8.50;99.90;;;;;;4943817;28;20031;-84
2023/11/08 08:27:20;;;;;;;4.60;4.07;;;8.50;99.90;;;;;;4918869;28;21282;-85
2023/11/08 08:29:46;;;;;;;3.90;3.50;;;8.50;99.90;;;;;;4893561;28;20045;-85
2023/11/08 08:32:11;;;;;;;4.25;3.85;;;8.60;99.90;;;;;;4908748;28;20054;-83
2023/11/08 08:34:46;;;;;;;6.65;4.07;;;8.60;99.90;;;;;;4874483;28;20038;-85
2023/11/08 08:37:12;;;;;;;5.22;4.50;;;8.60;99.90;;;;;;4944379;28;20031;-85
2023/11/08 08:39:37;;;;;;;5.63;3.85;;;8.60;99.90;;;;;;4927295;28;20042;-85
2023/11/08 08:42:10;;;;;;;4.45;3.67;;;8.60;99.90;;;;;;4930832;28;20039;-85
2023/11/08 08:44:36;;;;;;;6.20;4.20;;;8.60;99.90;;;;;;4923286;28;20049;-85
2023/11/08 08:47:01;;;;;;;5.47;3.75;;;8.50;99.90;;;;;;4943389;28;20023;-85
2023/11/08 08:49:27;;;;;;;5.32;4.03;;;8.50;99.90;;;;;;4871499;28;20446;-85
2023/11/08 08:51:59;;;;;;;4.22;3.83;;;8.50;99.90;;;;;;4949133;28;20042;-85
2023/11/08 08:54:25;;;;;;;6.35;4.38;;;8.60;99.90;;;;;;4994507;28;20041;-83
2023/11/08 08:56:50;;;;;;;4.43;3.70;;;8.60;99.90;;;;;;4907761;28;20018;-84
2023/11/08 08:59:18;;;;;;;5.63;4.60;;;8.60;99.90;;;;;;4876565;28;20081;-85
2023/11/08 09:01:44;;;;;;;5.80;4.60;;;8.60;99.90;;;;;;4903230;28;20031;-83
2023/11/08 09:04:09;;;;;;;6.25;4.97;;;8.70;99.90;;;;;;4933884;28;21376;-83
2023/11/08 09:06:35;;;;;;;6.95;4.50;;;8.70;99.90;;;;;;4956821;28;20010;-83
2023/11/08 09:09:01;;;;;;;5.65;5.05;;;8.70;99.90;;;;;;4983173;28;20014;-88
2023/11/08 09:11:26;;;;;;;5.38;4.88;;;8.70;99.90;;;;;;4957726;28;20169;-87
2023/11/08 09:13:53;;;;;;;7.18;4.55;;;8.70;99.90;;;;;;4965275;28;20347;-85
2023/11/08 09:16:20;;;;;;;7.43;4.65;;;8.70;99.90;;;;;;4965581;28;20477;-89
2023/11/08 09:18:57;;;;;;;5.93;4.78;;;8.80;99.90;;;;;;4931823;28;20022;-84
2023/11/08 09:21:25;;;;;;;5.28;4.78;;;8.80;99.90;;;;;;4931615;28;21343;-84
2023/11/08 09:23:51;;;;;;;6.43;4.43;;;8.80;99.90;;;;;;4955595;28;20062;-86
2023/11/08 09:26:17;;;;;;;5.63;4.20;;;8.90;99.90;;;;;;4930624;28;20542;-84
2023/11/08 09:28:42;;;;;;;6.78;4.18;;;8.90;99.90;;;;;;4964015;28;20335;-83
2023/11/08 09:31:08;;;;;;;6.97;4.28;;;8.90;99.90;;;;;;4966238;28;20045;-85
2023/11/08 09:33:34;;;;;;;6.03;4.50;;;8.90;99.90;;;;;;4960525;28;20027;-84
2023/11/08 09:36:00;;;;;;;4.80;4.40;;;8.90;99.90;;;;;;4950112;28;20030;-87
2023/11/08 09:38:28;;;;;;;8.63;4.75;;;9.00;99.90;;;;;;4948913;28;20561;-85
2023/11/08 09:40:54;;;;;;;9.00;4.65;;;9.00;99.90;;;;;;4918724;28;20090;-86
2023/11/08 09:43:22;;;;;;;9.50;5.55;;;8.90;99.90;;;;;;4910648;28;20088;-84
2023/11/08 09:45:54;;;;;;;5.93;5.20;;;8.90;99.90;;;;;;4910279;28;20041;-85
2023/11/08 09:48:23;;;;;;;8.23;5.18;;;8.90;99.90;;;;;;4981432;28;21553;-84
2023/11/08 09:50:49;;;;;;;8.77;5.47;;;9.00;99.90;;;;;;4927546;28;21565;-83
2023/11/08 09:53:14;;;;;;;5.22;4.43;;;9.00;99.90;;;;;;4909332;28;20138;-83
2023/11/08 09:55:40;;;;;;;7.95;4.97;;;8.90;99.90;;;;;;4918568;28;20403;-83
2023/11/08 09:58:09;;;;;;;7.18;5.20;;;9.00;99.90;;;;;;4911169;28;21368;-83
2023/11/08 10:00:36;;;;;;;6.50;5.60;;;9.00;99.90;;;;;;4943340;28;20050;-83
2023/11/08 10:03:04;;;;;;;6.35;4.68;;;9.10;99.90;;;;;;4937482;28;20034;-83
2023/11/08 10:05:37;;;;;;;9.75;5.32;;;9.10;99.90;;;;;;4960061;28;20031;-85
2023/11/08 10:08:13;;;;;;;7.88;5.38;;;9.20;99.90;;;;;;4984080;28;20053;-84
2023/11/08 10:10:42;;;;;;;7.40;5.00;;;9.20;99.90;;;;;;4940733;28;20073;-85
2023/11/08 10:13:08;;;;;;;7.15;4.35;;;9.20;99.90;;;;;;4942931;28;20089;-84
2023/11/08 10:15:34;;;;;;;7.03;4.97;;;9.30;99.90;;;;;;4938292;28;20052;-84
2023/11/08 10:18:00;;;;;;;11.10;5.32;;;9.30;99.90;;;;;;4924755;28;20462;-85
2023/11/08 10:20:37;;;;;;;6.63;4.63;;;9.30;99.90;;;;;;4950947;28;20031;-84
2023/11/08 10:23:26;;;;;;;8.13;5.35;;;9.30;99.90;;;;;;4944664;28;20529;-84
2023/11/08 10:26:13;;;;;;;6.75;4.47;;;9.30;99.90;;;;;;4924278;28;20026;-83
2023/11/08 10:28:54;;;;;;;6.38;4.85;;;9.30;99.90;;;;;;4937845;28;20033;-86
2023/11/08 10:31:34;;;;;;;8.75;5.22;;;9.40;99.90;;;;;;4930935;28;21160;-84
2023/11/08 10:34:04;;;;;;;8.30;4.80;;;9.40;99.90;;;;;;4917415;28;20030;-85
2023/11/08 10:36:32;;;;;;;9.07;5.10;;;9.40;99.90;;;;;;4910276;28;20102;-84
2023/11/08 10:38:58;;;;;;;8.50;4.97;;;9.40;99.90;;;;;;4918378;28;20109;-82
2023/11/08 10:41:24;;;;;;;10.23;5.75;;;9.50;99.90;;;;;;4936300;28;20026;-83
2023/11/08 10:44:07;;;;;;;7.80;5.03;;;9.50;99.90;;;;;;4896110;28;20022;-85
2023/11/08 10:46:33;;;;;;;7.63;5.18;;;9.50;99.90;;;;;;4941790;28;20030;-84
2023/11/08 10:49:00;;;;;;;9.70;5.30;;;9.60;99.90;;;;;;4930449;28;20072;-84
2023/11/08 10:51:26;;;;;;;9.63;5.35;;;9.70;99.90;;;;;;4931415;28;20023;-83
2023/11/08 10:53:53;;;;;;;11.05;5.35;;;9.70;99.90;;;;;;4931309;28;21467;-84
2023/11/08 10:56:20;;;;;;;6.85;4.18;;;9.90;99.90;;;;;;4939800;28;20031;-83
2023/11/08 10:58:48;;;;;;;7.57;5.07;;;9.90;99.90;;;;;;4957747;23;20045;-62
2023/11/08 11:01:14;;;;;;;9.00;4.72;;;9.90;99.90;;;;;;4882723;28;20022;-56
2023/11/08 11:03:42;;;;;;;9.27;5.90;;;9.90;99.90;;;;;;4910544;28;20028;-54
2023/11/08 11:06:08;;;;;;;10.25;5.07;;;9.90;99.90;;;;;;4921930;28;20030;-56
2023/11/08 11:08:38;;;;;;;6.60;4.07;;;10.00;99.90;;;;;;4864794;28;20034;-59
2023/11/08 11:11:05;;;;;;;9.90;4.70;;;10.00;99.90;;;;;;4968271;28;20027;-56
2023/11/08 11:13:42;;;;;;;6.32;4.45;;;10.00;99.90;;;;;;4983137;23;20030;-83
2023/11/08 11:16:26;;;;;;;6.50;4.53;;;10.10;99.90;;;;;;4947137;28;20026;-83
2023/11/08 11:18:59;;;;;;;12.23;5.45;;;10.20;99.90;;;;;;4993492;28;20022;-85
2023/11/08 11:21:33;;;;;;;13.38;5.20;;;10.20;99.90;;;;;;4949712;28;20049;-83
2023/11/08 11:23:58;;;;;;;6.82;4.25;;;10.30;99.90;;;;;;4922651;28;22084;-85
2023/11/08 11:26:46;;;;;;;7.13;4.30;;;10.40;99.90;;;;;;4985830;28;20094;-83
2023/11/08 11:29:16;;;;;;;6.00;3.63;;;10.40;99.90;;;;;;4981714;28;21852;-86
2023/11/08 11:31:42;;;;;;;8.65;4.60;;;10.40;99.90;;;;;;4983415;28;20496;-86
2023/11/08 11:34:19;;;;;;;7.97;4.63;;;10.30;99.90;;;;;;4963830;28;20022;-83
2023/11/08 11:37:05;;;;;;;7.88;4.40;;;10.30;99.90;;;;;;4928502;28;20679;-84
2023/11/08 11:39:32;;;;;;;4.40;3.92;;;10.30;99.90;;;;;;4972178;28;20030;-84
2023/11/08 11:41:59;;;;;;;4.78;4.07;;;10.30;99.90;;;;;;4940524;28;21420;-83
2023/11/08 11:44:42;;;;;;;8.32;4.68;;;10.30;99.90;;;;;;4941828;28;20045;-84
2023/11/08 11:47:10;;;;;;;8.85;4.80;;;10.30;99.90;;;;;;4920699;28;21760;-82
2023/11/08 11:49:47;;;;;;;4.95;3.75;;;10.30;99.90;;;;;;4972667;28;20021;-83
2023/11/08 11:52:19;;;;;;;4.13;3.72;;;10.40;99.90;;;;;;4959019;28;20338;-83
2023/11/08 11:54:49;;;;;;;5.32;4.32;;;10.40;99.90;;;;;;4938443;28;20037;-83
2023/11/08 11:57:18;;;;;;;10.82;4.97;;;10.40;99.90;;;;;;5007610;23;20042;-84
2023/11/08 11:59:46;;;;;;;5.65;3.80;;;10.40;99.90;;;;;;4957073;28;20092;-82
2023/11/08 12:02:12;;;;;;;9.50;4.30;;;10.40;99.90;;;;;;4918259;28;21273;-83
2023/11/08 12:04:39;;;;;;;5.60;3.70;;;10.40;99.90;;;;;;4960727;28;20030;-83
2023/11/08 12:07:11;;;;;;;6.55;4.13;;;10.40;99.90;;;;;;4895591;28;20034;-82
2023/11/08 12:09:39;;;;;;;5.82;4.05;;;10.40;99.90;;;;;;4914328;28;20912;-82
2023/11/08 12:12:06;;;;;;;10.23;5.65;;;10.40;99.90;;;;;;4945804;28;20091;-83
2023/11/08 12:14:36;;;;;;;5.18;4.10;;;10.40;99.90;;;;;;4920876;28;20023;-83
2023/11/08 12:17:07;;;;;;;4.57;3.75;;;10.40;99.90;;;;;;4919922;28;20038;-85
2023/11/08 12:19:33;;;;;;;11.05;4.50;;;10.40;99.90;;;;;;4984891;28;20040;-84
2023/11/08 12:22:05;;;;;;;10.32;4.63;;;10.40;99.90;;;;;;4956311;28;20131;-86
2023/11/08 12:24:35;;;;;;;5.25;3.90;;;10.50;99.90;;;;;;4935118;28;20504;-84
2023/11/08 12:27:02;;;;;;;5.45;3.70;;;10.50;99.90;;;;;;4936648;28;20015;-83
2023/11/08 12:29:27;;;;;;;12.30;4.50;;;10.60;99.90;;;;;;4979616;28;20078;-86
2023/11/08 12:31:54;;;;;;;4.03;3.28;;;10.60;99.90;;;;;;4978039;28;20084;-85
2023/11/08 12:34:21;;;;;;;5.72;4.13;;;10.60;99.90;;;;;;5036177;28;21533;-85
2023/11/08 12:37:12;;;;;;;5.28;3.67;;;10.60;99.90;;;;;;5012589;28;20029;-87
2023/11/08 12:39:37;;;;;;;7.85;3.97;;;10.70;99.90;;;;;;4967883;28;20022;-83
2023/11/08 12:42:19;;;;;;;12.23;4.15;;;10.70;99.90;;;;;;4938823;28;20041;-82
2023/11/08 12:44:46;;;;;;;6.18;3.78;;;10.70;99.90;;;;;;4969135;28;20025;-82
2023/11/08 12:47:12;;;;;;;7.43;4.15;;;10.70;99.90;;;;;;4939703;28;21750;-86
2023/11/08 12:49:37;;;;;;;9.02;4.18;;;10.70;99.90;;;;;;4990922;28;20545;-83
2023/11/08 12:52:08;;;;;;;6.68;4.03;;;10.60;99.90;;;;;;4945513;28;20009;-86
2023/11/08 12:54:34;;;;;;;7.40;3.97;;;10.60;99.90;;;;;;4954865;28;20049;-84
2023/11/08 12:57:00;;;;;;;5.30;4.07;;;10.60;99.90;;;;;;4977959;28;20086;-83
2023/11/08 12:59:25;;;;;;;4.95;4.30;;;10.70;99.90;;;;;;4982734;28;20626;-84